Time;durP1;ratioP1;P1;durP2;ratioP2;P2;SDS_P1;SDS_P2;PMS_P1;PMS_P2;Temp;Humidity;BMP_temperature;BMP_pressure;BME280_temperature;BME280_humidity;BME280_pressure;Samples;Min_cycle;Max_cycle;Signal;HPM_P1;HPM_P2
2022/10/28 00:01:04;;;;;;;20.20;14.95;;;13.60;99.90;;;;;;5020950;28;20036;-75
2022/10/28 00:03:30;;;;;;;19.63;14.07;;;13.60;99.90;;;;;;5006572;28;20071;-76
2022/10/28 00:06:07;;;;;;;15.95;13.00;;;13.70;99.90;;;;;;5022446;28;20120;-75
2022/10/28 00:08:33;;;;;;;20.90;13.45;;;13.70;99.90;;;;;;5018977;28;20033;-70
2022/10/28 00:11:11;;;;;;;17.38;13.23;;;13.80;99.90;;;;;;5024009;28;20075;-69
2022/10/28 00:13:38;;;;;;;15.85;12.45;;;13.80;99.90;;;;;;5020198;28;20037;-69
2022/10/28 00:16:04;;;;;;;17.02;12.88;;;13.80;99.90;;;;;;5022846;28;20045;-69
2022/10/28 00:18:30;;;;;;;16.23;12.65;;;13.70;99.90;;;;;;5022681;28;20030;-69
2022/10/28 00:21:08;;;;;;;16.85;12.45;;;13.70;99.90;;;;;;5021791;28;20032;-69
2022/10/28 00:23:34;;;;;;;17.15;11.98;;;13.70;99.90;;;;;;5023713;28;20729;-69
2022/10/28 00:26:09;;;;;;;17.42;12.23;;;13.70;99.90;;;;;;5019779;28;20122;-69
2022/10/28 00:28:38;;;;;;;16.85;12.95;;;13.80;99.90;;;;;;5006292;28;20075;-78
2022/10/28 00:31:06;;;;;;;18.02;13.07;;;13.70;99.90;;;;;;5022245;28;20036;-76
2022/10/28 00:33:31;;;;;;;17.85;12.50;;;13.70;99.90;;;;;;5026627;28;20431;-77
2022/10/28 00:36:10;;;;;;;15.90;13.05;;;13.60;99.90;;;;;;5022160;28;20041;-78
2022/10/28 00:38:36;;;;;;;24.83;13.68;;;13.50;99.90;;;;;;5021931;28;20032;-78
2022/10/28 00:41:01;;;;;;;19.25;13.25;;;13.50;99.90;;;;;;5025605;28;20087;-77
2022/10/28 00:43:52;;;;;;;18.73;13.60;;;13.50;99.90;;;;;;5020838;28;20091;-78
2022/10/28 00:46:26;;;;;;;20.15;13.93;;;13.40;99.90;;;;;;5019509;28;20051;-77
2022/10/28 00:49:16;;;;;;;19.77;14.38;;;13.40;99.90;;;;;;5021465;28;20024;-77
2022/10/28 00:51:44;;;;;;;22.30;13.77;;;13.30;99.90;;;;;;5025275;28;20047;-78
2022/10/28 00:54:12;;;;;;;21.60;14.27;;;13.30;99.90;;;;;;5025649;28;20064;-77
2022/10/28 00:56:41;;;;;;;19.05;13.75;;;13.30;99.90;;;;;;5019213;28;20029;-77
2022/10/28 00:59:15;;;;;;;18.77;13.88;;;13.30;99.90;;;;;;5017880;28;20083;-78
2022/10/28 01:01:40;;;;;;;20.70;14.18;;;13.40;99.90;;;;;;5024914;28;20043;-78
2022/10/28 01:04:07;;;;;;;20.92;14.43;;;13.40;99.90;;;;;;5027678;28;20029;-78
2022/10/28 01:06:33;;;;;;;19.08;14.00;;;13.40;99.90;;;;;;5017864;28;20068;-78
2022/10/28 01:08:59;;;;;;;19.83;13.60;;;13.40;99.90;;;;;;5018771;28;20128;-78
2022/10/28 01:12:16;;;;;;;18.58;12.75;;;13.30;99.90;;;;;;5019053;28;20033;-78
2022/10/28 01:15:09;;;;;;;22.67;14.63;;;13.40;99.90;;;;;;4956007;28;20134;-77
2022/10/28 01:17:37;;;;;;;;;;;13.30;99.90;;;;;;5023287;28;20033;-78
2022/10/28 01:20:44;;;;;;;17.25;12.20;;;13.30;99.90;;;;;;5020022;28;19920;-78
2022/10/28 01:23:18;;;;;;;14.90;11.55;;;13.30;99.90;;;;;;5012939;28;20049;-78
2022/10/28 01:26:02;;;;;;;19.75;12.02;;;13.30;99.90;;;;;;5023773;28;20116;-78
2022/10/28 01:28:31;;;;;;;15.13;11.35;;;13.30;99.90;;;;;;5021515;28;20863;-77
2022/10/28 01:31:15;;;;;;;13.65;10.73;;;13.30;99.90;;;;;;5011501;28;20064;-77
2022/10/28 01:34:11;;;;;;;14.30;10.70;;;13.20;99.90;;;;;;5019058;28;20490;-77
2022/10/28 01:36:45;;;;;;;14.35;10.98;;;13.30;99.90;;;;;;5008206;28;20033;-77
2022/10/28 01:39:36;;;;;;;15.93;11.13;;;13.30;99.90;;;;;;5022165;28;20799;-77
2022/10/28 01:42:41;;;;;;;16.15;11.55;;;13.30;99.90;;;;;;5024438;28;20036;-77
2022/10/28 01:45:11;;;;;;;13.82;10.35;;;13.30;99.90;;;;;;4987727;28;20049;-77
2022/10/28 01:48:00;;;;;;;15.43;11.35;;;13.30;99.90;;;;;;5015057;28;20108;-77
2022/10/28 01:50:39;;;;;;;15.75;11.65;;;13.30;99.90;;;;;;5019802;28;20531;-78
2022/10/28 01:53:09;;;;;;;16.83;10.57;;;13.30;99.90;;;;;;5019537;28;20671;-77
2022/10/28 01:55:44;;;;;;;12.45;9.63;;;13.40;99.90;;;;;;5026376;28;20048;-77
2022/10/28 01:58:13;;;;;;;11.38;8.80;;;13.40;99.90;;;;;;5022347;28;20054;-78
2022/10/28 02:00:42;;;;;;;11.18;9.13;;;13.40;99.90;;;;;;5020392;28;20029;-78
2022/10/28 02:03:09;;;;;;;12.05;8.82;;;13.40;99.90;;;;;;5021492;28;20147;-69
2022/10/28 02:05:49;;;;;;;13.60;9.70;;;13.40;99.90;;;;;;5014709;28;20155;-69
2022/10/28 02:08:18;;;;;;;12.52;9.43;;;13.40;99.90;;;;;;5018224;28;20029;-69
2022/10/28 02:11:26;;;;;;;11.32;8.93;;;13.40;99.90;;;;;;5022631;28;20053;-69
2022/10/28 02:13:57;;;;;;;9.88;7.88;;;13.40;99.90;;;;;;4990836;28;20076;-69
2022/10/28 02:16:30;;;;;;;12.73;8.77;;;13.40;99.90;;;;;;4988766;28;20028;-70
2022/10/28 02:18:59;;;;;;;10.10;7.65;;;13.30;99.90;;;;;;5016842;28;20029;-69
2022/10/28 02:21:30;;;;;;;11.30;8.02;;;13.30;99.90;;;;;;5019612;28;20048;-69
2022/10/28 02:24:09;;;;;;;10.32;8.07;;;13.30;99.90;;;;;;5020716;28;20033;-70
2022/10/28 02:26:45;;;;;;;10.43;8.38;;;13.30;99.90;;;;;;5019590;28;20049;-70
2022/10/28 02:29:40;;;;;;;8.25;7.00;;;13.30;99.90;;;;;;5027472;28;20045;-69
2022/10/28 02:32:10;;;;;;;8.90;7.10;;;13.30;99.90;;;;;;5022202;28;20040;-69
2022/10/28 02:34:40;;;;;;;10.65;7.43;;;13.40;99.90;;;;;;5022053;28;20223;-69
2022/10/28 02:37:14;;;;;;;8.95;6.50;;;13.40;99.90;;;;;;5018891;28;20066;-69
2022/10/28 02:39:45;;;;;;;6.68;5.97;;;13.30;99.90;;;;;;5020274;28;20104;-70
2022/10/28 02:42:16;;;;;;;8.30;6.65;;;13.30;99.90;;;;;;5020382;28;20611;-78
2022/10/28 02:44:48;;;;;;;8.10;6.57;;;13.30;99.90;;;;;;5020349;28;20060;-78
2022/10/28 02:47:19;;;;;;;8.05;6.82;;;13.30;99.90;;;;;;5022274;28;20035;-78
2022/10/28 02:49:50;;;;;;;7.70;6.70;;;13.30;99.90;;;;;;5019380;28;20052;-78
2022/10/28 02:52:18;;;;;;;11.17;7.37;;;13.30;99.90;;;;;;5000995;28;20036;-78
2022/10/28 02:54:53;;;;;;;8.15;6.82;;;13.20;99.90;;;;;;5023476;28;20049;-78
2022/10/28 02:57:27;;;;;;;9.73;7.15;;;13.20;99.90;;;;;;5019221;28;20401;-78
2022/10/28 02:59:58;;;;;;;8.23;6.47;;;13.20;99.90;;;;;;5021002;28;20029;-77
2022/10/28 03:02:24;;;;;;;8.83;6.70;;;13.20;99.90;;;;;;5020199;28;20025;-76
2022/10/28 03:04:50;;;;;;;7.78;6.70;;;13.20;99.90;;;;;;5022421;28;20048;-77
2022/10/28 03:07:15;;;;;;;8.27;6.80;;;13.20;99.90;;;;;;5020064;28;20513;-77
2022/10/28 03:09:41;;;;;;;8.60;6.85;;;13.20;99.90;;;;;;5020587;28;21162;-77
2022/10/28 03:12:07;;;;;;;9.10;7.32;;;13.20;99.90;;;;;;5025870;28;20048;-78
2022/10/28 03:14:32;;;;;;;8.70;7.03;;;13.10;99.90;;;;;;5021973;28;20049;-77
2022/10/28 03:16:58;;;;;;;9.57;6.88;;;13.10;99.90;;;;;;5022502;28;20038;-78
2022/10/28 03:19:23;;;;;;;11.88;7.07;;;13.10;99.90;;;;;;5019759;28;20962;-78
2022/10/28 03:21:49;;;;;;;8.23;6.75;;;13.10;99.90;;;;;;5019275;28;20028;-78
2022/10/28 03:24:15;;;;;;;9.13;6.88;;;13.10;99.90;;;;;;5019350;28;20590;-78
2022/10/28 03:26:40;;;;;;;8.68;6.75;;;13.20;99.90;;;;;;5008511;28;20113;-78
2022/10/28 03:29:06;;;;;;;8.75;7.00;;;13.20;99.90;;;;;;5023297;28;20037;-77
2022/10/28 03:31:31;;;;;;;8.30;6.75;;;13.20;99.90;;;;;;5019550;28;20605;-78
2022/10/28 03:33:57;;;;;;;8.27;6.55;;;13.10;99.90;;;;;;5022298;28;20123;-78
2022/10/28 03:36:23;;;;;;;9.18;6.97;;;13.00;99.90;;;;;;5021767;28;20100;-78
2022/10/28 03:38:48;;;;;;;9.00;7.10;;;13.00;99.90;;;;;;5020991;28;20632;-77
2022/10/28 03:41:14;;;;;;;8.25;6.65;;;12.90;99.90;;;;;;5019611;28;20506;-77
2022/10/28 03:43:40;;;;;;;10.30;6.35;;;13.00;99.90;;;;;;5022073;28;20037;-77
2022/10/28 03:46:05;;;;;;;9.88;7.18;;;12.90;99.90;;;;;;5022247;28;20056;-77
2022/10/28 03:48:31;;;;;;;9.13;6.95;;;13.00;99.90;;;;;;5019555;28;20029;-78
2022/10/28 03:50:56;;;;;;;8.68;6.45;;;13.00;99.90;;;;;;5017829;28;20445;-77
2022/10/28 03:53:22;;;;;;;7.05;5.78;;;12.90;99.90;;;;;;5024668;28;20034;-78
2022/10/28 03:55:54;;;;;;;7.35;5.60;;;12.90;99.90;;;;;;5026366;28;20032;-78
2022/10/28 03:58:20;;;;;;;7.00;5.43;;;12.80;99.90;;;;;;5025849;28;20234;-77
2022/10/28 04:00:50;;;;;;;7.25;5.75;;;12.80;99.90;;;;;;5024490;28;20036;-77
2022/10/28 04:03:17;;;;;;;7.03;5.53;;;12.80;99.90;;;;;;5018674;28;20033;-78
2022/10/28 04:05:43;;;;;;;7.00;5.80;;;12.80;99.90;;;;;;5016422;28;20037;-78
2022/10/28 04:08:09;;;;;;;8.15;6.10;;;12.80;99.90;;;;;;5025450;28;20117;-77
2022/10/28 04:10:35;;;;;;;11.57;6.35;;;12.80;99.90;;;;;;5014919;28;20114;-78
2022/10/28 04:13:05;;;;;;;7.22;5.63;;;12.80;99.90;;;;;;5019207;28;20021;-77
2022/10/28 04:15:30;;;;;;;7.47;5.95;;;12.70;99.90;;;;;;5010295;28;20103;-77
2022/10/28 04:17:56;;;;;;;8.32;6.70;;;12.70;99.90;;;;;;5019246;28;20025;-69
2022/10/28 04:20:23;;;;;;;6.72;5.55;;;12.80;99.90;;;;;;5021850;28;20044;-69
2022/10/28 04:22:48;;;;;;;6.80;5.78;;;12.80;99.90;;;;;;5021616;28;20053;-69
2022/10/28 04:25:14;;;;;;;7.88;5.80;;;12.80;99.90;;;;;;5023371;28;20124;-69
2022/10/28 04:27:40;;;;;;;10.80;6.10;;;12.80;99.90;;;;;;5024483;28;20025;-69
2022/10/28 04:30:06;;;;;;;7.43;6.00;;;12.80;99.90;;;;;;5023153;28;20781;-69
2022/10/28 04:32:32;;;;;;;7.60;5.90;;;12.80;99.90;;;;;;5019816;28;20033;-69
2022/10/28 04:34:57;;;;;;;7.35;5.95;;;12.80;99.90;;;;;;5020099;28;20041;-69
2022/10/28 04:37:23;;;;;;;7.95;5.82;;;12.80;99.90;;;;;;5019264;28;20032;-69
2022/10/28 04:39:49;;;;;;;8.88;5.85;;;12.80;99.90;;;;;;5018314;28;20596;-69
2022/10/28 04:42:15;;;;;;;7.80;6.20;;;12.80;99.90;;;;;;5020914;28;20041;-69
2022/10/28 04:44:40;;;;;;;7.55;6.22;;;12.70;99.90;;;;;;5029832;28;20037;-70
2022/10/28 04:47:06;;;;;;;8.45;6.30;;;12.70;99.90;;;;;;5021530;28;20033;-71
2022/10/28 04:49:31;;;;;;;9.35;6.10;;;12.70;99.90;;;;;;5022965;28;20029;-72
2022/10/28 04:51:57;;;;;;;7.47;6.05;;;12.70;99.90;;;;;;5020004;28;20037;-77
2022/10/28 04:54:23;;;;;;;9.60;6.68;;;12.70;99.90;;;;;;5021591;28;20099;-71
2022/10/28 04:56:48;;;;;;;11.57;7.38;;;12.70;99.90;;;;;;5022828;28;20037;-80
2022/10/28 04:59:14;;;;;;;8.90;6.60;;;12.70;99.90;;;;;;5020801;28;20554;-73
2022/10/28 05:01:39;;;;;;;9.45;6.53;;;12.70;99.90;;;;;;5021595;28;20022;-78
2022/10/28 05:04:05;;;;;;;7.32;6.55;;;12.70;99.90;;;;;;5022713;28;20099;-78
2022/10/28 05:06:31;;;;;;;8.43;5.80;;;12.70;99.90;;;;;;5018313;28;20037;-76
2022/10/28 05:08:56;;;;;;;7.22;6.00;;;12.70;99.90;;;;;;5025270;28;20168;-76
2022/10/28 05:11:22;;;;;;;7.70;6.00;;;12.80;99.90;;;;;;5023242;28;20116;-75
2022/10/28 05:13:47;;;;;;;7.13;5.97;;;12.80;99.90;;;;;;5020476;28;20032;-76
2022/10/28 05:16:13;;;;;;;8.68;6.40;;;12.80;99.90;;;;;;5021683;28;20041;-77
2022/10/28 05:18:38;;;;;;;7.50;5.53;;;12.80;99.90;;;;;;5022759;28;20036;-77
2022/10/28 05:21:04;;;;;;;6.50;5.40;;;12.70;99.90;;;;;;5025195;28;20564;-77
2022/10/28 05:23:30;;;;;;;7.28;5.95;;;12.70;99.90;;;;;;5017983;28;20044;-73
2022/10/28 05:25:55;;;;;;;226.07;24.75;;;12.70;99.90;;;;;;5020129;28;20140;-76
2022/10/28 05:28:21;;;;;;;16.77;6.57;;;12.70;99.90;;;;;;5020549;28;20025;-76
2022/10/28 05:30:47;;;;;;;8.07;6.07;;;12.70;99.90;;;;;;5021632;28;20033;-75
2022/10/28 05:33:12;;;;;;;7.45;5.28;;;12.60;99.90;;;;;;5024116;28;20029;-75
2022/10/28 05:35:39;;;;;;;8.23;5.53;;;12.60;99.90;;;;;;5016861;28;20032;-73
2022/10/28 05:38:04;;;;;;;7.10;6.00;;;12.60;99.90;;;;;;5018544;28;20025;-76
2022/10/28 05:40:33;;;;;;;10.00;6.35;;;12.50;99.90;;;;;;5018666;28;20571;-76
2022/10/28 05:42:59;;;;;;;7.13;5.65;;;12.50;99.90;;;;;;5021191;28;20028;-76
2022/10/28 05:45:26;;;;;;;8.00;6.18;;;12.50;99.90;;;;;;5020024;28;20038;-76
2022/10/28 05:47:51;;;;;;;7.88;5.95;;;12.50;99.90;;;;;;5021183;28;20482;-76
2022/10/28 05:50:19;;;;;;;8.15;6.35;;;12.50;99.90;;;;;;5020301;28;20040;-76
2022/10/28 05:52:50;;;;;;;11.85;6.88;;;12.50;99.90;;;;;;5019800;28;20079;-76
2022/10/28 05:55:18;;;;;;;8.18;6.20;;;12.60;99.90;;;;;;5025556;28;20033;-77
2022/10/28 05:57:44;;;;;;;8.93;6.30;;;12.60;99.90;;;;;;5023613;28;20037;-77
2022/10/28 06:00:11;;;;;;;7.90;6.03;;;12.70;99.90;;;;;;5007659;28;20036;-77
2022/10/28 06:02:37;;;;;;;10.73;6.63;;;12.60;99.90;;;;;;5018874;28;20049;-76
2022/10/28 06:05:02;;;;;;;13.13;6.95;;;12.60;99.90;;;;;;5025245;28;20029;-76
2022/10/28 06:07:29;;;;;;;9.93;7.32;;;12.60;99.90;;;;;;5023775;28;20045;-76
2022/10/28 06:09:54;;;;;;;10.63;7.45;;;12.60;99.90;;;;;;5021561;28;20043;-76
2022/10/28 06:12:20;;;;;;;10.23;7.03;;;12.60;99.90;;;;;;5025975;28;20025;-74
2022/10/28 06:14:45;;;;;;;9.32;7.25;;;12.60;99.90;;;;;;5022686;28;20160;-74
2022/10/28 06:17:11;;;;;;;11.02;7.57;;;12.50;99.90;;;;;;5023643;28;20041;-74
2022/10/28 06:19:37;;;;;;;13.35;8.27;;;12.50;99.90;;;;;;5022133;28;20037;-75
2022/10/28 06:22:02;;;;;;;8.70;6.80;;;12.60;99.90;;;;;;5022396;28;20751;-76
2022/10/28 06:24:28;;;;;;;12.77;7.85;;;12.60;99.90;;;;;;5025389;28;20032;-75
2022/10/28 06:26:53;;;;;;;13.18;7.78;;;12.60;99.90;;;;;;5023448;28;20034;-75
2022/10/28 06:29:19;;;;;;;9.90;7.30;;;12.60;99.90;;;;;;5023177;28;20021;-76
2022/10/28 06:31:45;;;;;;;12.63;8.63;;;12.60;99.90;;;;;;5025052;28;20048;-75
2022/10/28 06:34:11;;;;;;;11.30;7.97;;;12.70;99.90;;;;;;5022215;28;20032;-75
2022/10/28 06:36:36;;;;;;;11.68;8.20;;;12.70;99.90;;;;;;5022475;28;20126;-75
2022/10/28 06:39:02;;;;;;;12.65;8.55;;;12.70;99.90;;;;;;5026238;28;20036;-75
2022/10/28 06:41:28;;;;;;;10.30;8.10;;;12.80;99.90;;;;;;5024378;28;20029;-76
2022/10/28 06:43:53;;;;;;;10.73;7.75;;;12.80;99.90;;;;;;5024563;28;20064;-76
2022/10/28 06:46:19;;;;;;;10.95;7.93;;;12.90;99.90;;;;;;5020231;28;20041;-76
2022/10/28 06:48:45;;;;;;;13.55;8.05;;;12.80;99.90;;;;;;5022741;28;20021;-76
2022/10/28 06:51:10;;;;;;;15.20;8.73;;;12.80;99.90;;;;;;5021195;28;20158;-76
2022/10/28 06:53:36;;;;;;;11.27;8.32;;;12.80;99.90;;;;;;5024031;28;20020;-76
2022/10/28 06:56:01;;;;;;;14.07;8.90;;;12.80;99.90;;;;;;5023644;28;20029;-76
2022/10/28 06:58:27;;;;;;;12.30;8.38;;;12.80;99.90;;;;;;5018673;28;20521;-76
2022/10/28 07:00:53;;;;;;;15.05;9.30;;;12.80;99.90;;;;;;5016258;28;20035;-75
2022/10/28 07:03:18;;;;;;;11.52;9.30;;;12.90;99.90;;;;;;5003916;28;20060;-76
2022/10/28 07:05:45;;;;;;;12.32;8.77;;;12.80;99.90;;;;;;5023166;28;20036;-76
2022/10/28 07:08:13;;;;;;;11.93;8.95;;;12.90;99.90;;;;;;5014198;28;20029;-76
2022/10/28 07:10:38;;;;;;;11.98;8.55;;;13.00;99.90;;;;;;5021204;28;20032;-76
2022/10/28 07:13:04;;;;;;;11.50;9.10;;;13.00;99.90;;;;;;5002686;28;20394;-76
2022/10/28 07:15:30;;;;;;;11.88;8.30;;;13.00;99.90;;;;;;5015897;28;20057;-76
2022/10/28 07:17:57;;;;;;;11.20;8.20;;;13.00;99.90;;;;;;5021631;28;20115;-75
2022/10/28 07:20:24;;;;;;;10.80;7.72;;;13.00;99.90;;;;;;5019052;28;20552;-75
2022/10/28 07:23:00;;;;;;;12.02;8.80;;;13.00;99.90;;;;;;5021044;28;20033;-75
2022/10/28 07:25:29;;;;;;;11.63;8.27;;;12.90;99.90;;;;;;5018273;28;20028;-77
2022/10/28 07:27:59;;;;;;;11.43;8.25;;;12.90;99.90;;;;;;5021931;28;20021;-77
2022/10/28 07:30:26;;;;;;;11.05;8.45;;;13.00;99.90;;;;;;5020247;28;20073;-77
2022/10/28 07:32:51;;;;;;;10.98;8.48;;;13.00;99.90;;;;;;5025384;28;20032;-77
2022/10/28 07:35:17;;;;;;;12.50;9.02;;;12.90;99.90;;;;;;5021484;28;20028;-77
2022/10/28 07:37:43;;;;;;;11.20;8.57;;;12.90;99.90;;;;;;5023948;28;20033;-77
2022/10/28 07:40:09;;;;;;;11.65;8.73;;;13.00;99.90;;;;;;5025463;28;20522;-76
2022/10/28 07:42:34;;;;;;;12.82;9.27;;;13.00;99.90;;;;;;5021300;28;20405;-76
2022/10/28 07:45:00;;;;;;;11.23;9.05;;;12.90;99.90;;;;;;5018470;28;20045;-76
2022/10/28 07:47:25;;;;;;;13.48;9.48;;;12.90;99.90;;;;;;5012962;28;20029;-75
2022/10/28 07:49:53;;;;;;;15.40;9.93;;;12.90;99.90;;;;;;5021777;28;20055;-75
2022/10/28 07:52:19;;;;;;;14.00;9.85;;;12.90;99.90;;;;;;5024843;28;20025;-75
2022/10/28 07:54:44;;;;;;;11.93;9.82;;;13.00;99.90;;;;;;5000346;28;20032;-74
2022/10/28 07:57:10;;;;;;;12.93;9.85;;;13.00;99.90;;;;;;5021522;28;20389;-75
2022/10/28 07:59:35;;;;;;;13.80;10.10;;;13.00;99.90;;;;;;5010142;28;20030;-74
2022/10/28 08:02:02;;;;;;;14.45;10.60;;;13.00;99.90;;;;;;5012946;28;20029;-75
2022/10/28 08:04:29;;;;;;;12.90;9.55;;;13.00;99.90;;;;;;5020178;28;20047;-75
2022/10/28 08:06:55;;;;;;;15.45;10.80;;;13.00;99.90;;;;;;5022863;28;20033;-75
2022/10/28 08:09:21;;;;;;;13.48;9.40;;;13.10;99.90;;;;;;5025373;28;20033;-75
2022/10/28 08:11:46;;;;;;;15.10;9.55;;;13.10;99.90;;;;;;5022847;28;20044;-75
2022/10/28 08:14:12;;;;;;;14.98;10.52;;;13.20;99.90;;;;;;5024061;28;20042;-75
2022/10/28 08:16:37;;;;;;;18.27;12.07;;;13.10;99.90;;;;;;5013960;28;20071;-75
2022/10/28 08:19:03;;;;;;;18.02;10.90;;;13.10;99.90;;;;;;5018775;28;20041;-75
2022/10/28 08:21:29;;;;;;;19.60;12.38;;;13.20;99.90;;;;;;5023080;28;20029;-75
2022/10/28 08:23:54;;;;;;;17.05;10.40;;;13.30;99.90;;;;;;5025881;28;20397;-76
2022/10/28 08:26:20;;;;;;;17.65;10.60;;;13.30;99.90;;;;;;5017870;28;20057;-76
2022/10/28 08:28:46;;;;;;;16.10;11.32;;;13.30;99.90;;;;;;5011426;28;20612;-76
2022/10/28 08:31:12;;;;;;;20.05;11.90;;;13.30;99.90;;;;;;5013572;28;20102;-76
2022/10/28 08:33:41;;;;;;;19.55;11.88;;;13.30;99.90;;;;;;5015916;28;20033;-75
2022/10/28 08:36:08;;;;;;;18.25;10.88;;;13.20;99.90;;;;;;4999403;28;20837;-76
2022/10/28 08:38:34;;;;;;;18.48;11.13;;;13.30;99.90;;;;;;5028629;28;20044;-77
2022/10/28 08:41:34;;;;;;;15.25;9.95;;;13.30;99.90;;;;;;5029048;28;20021;-76
2022/10/28 08:44:19;;;;;;;18.02;10.55;;;13.30;99.90;;;;;;5010275;28;20862;-77
2022/10/28 08:47:10;;;;;;;20.65;11.55;;;13.30;99.90;;;;;;5016398;28;24212;-76
2022/10/28 08:49:40;;;;;;;17.33;11.43;;;13.20;99.90;;;;;;5028413;28;20029;-75
2022/10/28 08:52:33;;;;;;;20.80;11.40;;;13.20;99.90;;;;;;5017962;28;20921;-76
2022/10/28 08:55:11;;;;;;;24.75;13.27;;;13.00;99.90;;;;;;5025293;28;20025;-76
2022/10/28 08:57:48;;;;;;;25.90;12.70;;;13.00;99.90;;;;;;5004995;28;20037;-77
2022/10/28 09:00:32;;;;;;;18.42;10.65;;;13.10;99.90;;;;;;5021618;28;20041;-76
2022/10/28 09:03:10;;;;;;;18.20;11.20;;;13.20;99.90;;;;;;5021171;28;20199;-76
2022/10/28 09:05:36;;;;;;;17.05;11.80;;;13.10;99.90;;;;;;5023100;28;20052;-77
2022/10/28 09:08:03;;;;;;;19.00;11.93;;;13.10;99.90;;;;;;5004391;28;20041;-77
2022/10/28 09:10:56;;;;;;;17.52;11.95;;;13.10;99.90;;;;;;5023062;28;20033;-77
2022/10/28 09:13:40;;;;;;;17.08;10.50;;;13.10;99.90;;;;;;5022844;28;20029;-76
2022/10/28 09:16:17;;;;;;;17.77;12.02;;;13.10;99.90;;;;;;5030792;28;20135;-77
2022/10/28 09:19:33;;;;;;;18.98;11.30;;;13.10;99.90;;;;;;5021904;28;20026;-80
2022/10/28 09:22:20;;;;;;;15.77;9.90;;;13.20;99.90;;;;;;4979580;28;20035;-86
2022/10/28 09:24:52;;;;;;;18.73;11.68;;;13.30;99.90;;;;;;5019393;28;20569;-73
2022/10/28 09:27:31;;;;;;;21.33;12.18;;;13.60;99.90;;;;;;5009917;28;20490;-73
2022/10/28 09:30:09;;;;;;;20.63;12.20;;;13.70;99.90;;;;;;5021010;28;20176;-72
2022/10/28 09:32:35;;;;;;;21.55;13.85;;;13.60;99.90;;;;;;5020520;28;20021;-73
2022/10/28 09:35:14;;;;;;;18.60;12.23;;;13.50;99.90;;;;;;5020538;28;20568;-73
2022/10/28 09:38:00;;;;;;;19.73;12.75;;;13.50;99.90;;;;;;5021803;28;20045;-73
2022/10/28 09:40:33;;;;;;;20.23;12.50;;;13.40;99.90;;;;;;5018232;28;20033;-73
2022/10/28 09:43:05;;;;;;;21.25;13.18;;;13.50;99.90;;;;;;5020002;28;20063;-73
2022/10/28 09:45:34;;;;;;;25.60;13.60;;;13.50;99.90;;;;;;5001303;28;20486;-73
2022/10/28 09:48:12;;;;;;;23.95;13.73;;;13.50;99.90;;;;;;5014066;28;20045;-73
2022/10/28 09:50:39;;;;;;;22.33;13.10;;;13.50;99.90;;;;;;5019147;28;20037;-73
2022/10/28 09:53:20;;;;;;;25.80;15.13;;;13.50;99.90;;;;;;5015920;28;20025;-73
2022/10/28 09:55:45;;;;;;;27.38;15.00;;;13.60;99.90;;;;;;5017648;28;20111;-73
2022/10/28 09:58:12;;;;;;;24.58;14.07;;;13.70;99.90;;;;;;5021938;28;20033;-73
2022/10/28 10:00:38;;;;;;;21.67;13.55;;;13.70;99.90;;;;;;5021173;28;20029;-73
2022/10/28 10:03:04;;;;;;;20.25;12.80;;;13.70;99.90;;;;;;5021990;28;20025;-73
2022/10/28 10:05:36;;;;;;;25.90;14.98;;;13.70;99.90;;;;;;5005044;28;20042;-74
2022/10/28 10:08:05;;;;;;;21.42;14.18;;;13.70;99.90;;;;;;5022921;28;20032;-73
2022/10/28 10:10:43;;;;;;;23.15;14.55;;;13.70;99.90;;;;;;5016966;28;20133;-74
2022/10/28 10:13:11;;;;;;;21.63;13.25;;;13.60;99.90;;;;;;5016196;28;20117;-73
2022/10/28 10:15:44;;;;;;;19.58;13.40;;;13.50;99.90;;;;;;5019465;28;20045;-73
2022/10/28 10:18:17;;;;;;;22.45;14.05;;;13.60;99.90;;;;;;5018616;28;20025;-73
2022/10/28 10:20:52;;;;;;;22.33;13.45;;;13.60;99.90;;;;;;5004464;28;20064;-81
2022/10/28 10:23:24;;;;;;;20.35;13.65;;;13.60;99.90;;;;;;5007990;28;20033;-81
2022/10/28 10:26:04;;;;;;;21.02;13.38;;;13.60;99.90;;;;;;5021542;28;20045;-81
2022/10/28 10:28:31;;;;;;;27.52;14.50;;;13.60;99.90;;;;;;5017325;28;20063;-80
2022/10/28 10:31:00;;;;;;;21.05;14.15;;;13.70;99.90;;;;;;5019625;28;20106;-80
2022/10/28 10:33:39;;;;;;;19.13;12.55;;;13.70;99.90;;;;;;5019647;28;20061;-80
2022/10/28 10:36:10;;;;;;;23.17;14.10;;;13.70;99.90;;;;;;5021810;28;20033;-79
2022/10/28 10:38:45;;;;;;;20.27;12.93;;;13.70;99.90;;;;;;5024318;28;20034;-80
2022/10/28 10:41:10;;;;;;;20.10;12.88;;;13.70;99.90;;;;;;5025101;28;20033;-80
2022/10/28 10:43:36;;;;;;;22.85;14.73;;;13.70;99.90;;;;;;5022807;28;20029;-80
2022/10/28 10:46:12;;;;;;;18.60;13.43;;;13.70;99.90;;;;;;5020419;28;20037;-80
2022/10/28 10:48:38;;;;;;;20.83;14.07;;;13.60;99.90;;;;;;5018511;28;20029;-80
2022/10/28 10:51:07;;;;;;;19.67;13.57;;;13.70;99.90;;;;;;5018464;28;20039;-79
2022/10/28 10:53:34;;;;;;;17.27;12.57;;;13.70;99.90;;;;;;5013618;28;20018;-80
2022/10/28 10:56:07;;;;;;;18.92;13.60;;;13.70;99.90;;;;;;5023990;28;20025;-79
2022/10/28 10:58:37;;;;;;;17.60;12.75;;;13.80;99.90;;;;;;5020728;28;20496;-77
2022/10/28 11:01:06;;;;;;;19.10;13.25;;;13.70;99.90;;;;;;5022879;28;20029;-81
2022/10/28 11:03:38;;;;;;;19.08;12.65;;;13.80;99.90;;;;;;5015756;28;20087;-82
2022/10/28 11:06:07;;;;;;;18.42;12.82;;;13.80;99.90;;;;;;5026289;28;24136;-81
2022/10/28 11:08:41;;;;;;;19.65;13.70;;;13.80;99.90;;;;;;5028289;28;20068;-81
2022/10/28 11:11:18;;;;;;;21.73;13.52;;;13.90;99.90;;;;;;5021505;28;20067;-82
2022/10/28 11:13:45;;;;;;;22.05;14.52;;;13.90;99.90;;;;;;5024894;28;20033;-81
2022/10/28 11:16:24;;;;;;;20.85;13.27;;;13.80;99.90;;;;;;5025515;28;20624;-81
2022/10/28 11:18:51;;;;;;;19.83;13.27;;;13.80;99.90;;;;;;5012128;28;20732;-80
2022/10/28 11:21:35;;;;;;;20.50;13.45;;;13.80;99.90;;;;;;5025224;28;20474;-80
2022/10/28 11:24:37;;;;;;;19.92;13.57;;;13.90;99.90;;;;;;5013489;28;20047;-80
2022/10/28 11:27:45;;;;;;;23.45;13.68;;;13.90;99.90;;;;;;5002437;28;20034;-82
2022/10/28 11:30:17;;;;;;;25.20;16.50;;;14.00;99.90;;;;;;5020996;28;20037;-67
2022/10/28 11:33:01;;;;;;;24.30;16.55;;;14.10;99.90;;;;;;5019502;28;20032;-83
2022/10/28 11:35:27;;;;;;;20.05;13.13;;;14.40;99.90;;;;;;5004482;28;20053;-79
2022/10/28 11:38:15;;;;;;;18.67;13.60;;;14.40;99.90;;;;;;5021840;28;20125;-82
2022/10/28 11:41:11;;;;;;;20.85;14.02;;;14.20;99.90;;;;;;5009112;28;20038;-81
2022/10/28 11:43:49;;;;;;;18.55;13.10;;;14.20;99.90;;;;;;5023089;28;20033;-81
2022/10/28 11:46:29;;;;;;;17.67;13.38;;;14.20;99.90;;;;;;5020816;28;20072;-81
2022/10/28 11:49:13;;;;;;;20.67;14.15;;;14.20;99.90;;;;;;5023406;28;20033;-68
2022/10/28 11:52:10;;;;;;;20.95;14.52;;;14.30;99.90;;;;;;5023034;28;20638;-83
2022/10/28 11:55:05;;;;;;;22.52;15.50;;;14.30;99.90;;;;;;5023529;28;20040;-73
2022/10/28 11:57:49;;;;;;;27.70;17.20;;;14.30;99.90;;;;;;5020968;28;20041;-73
2022/10/28 12:00:30;;;;;;;22.05;17.02;;;14.10;99.90;;;;;;5027654;28;20036;-73
2022/10/28 12:03:29;;;;;;;15.82;12.73;;;13.90;99.90;;;;;;5016099;28;20613;-72
2022/10/28 12:06:16;;;;;;;20.38;15.27;;;13.90;99.90;;;;;;5017466;28;20045;-71
2022/10/28 12:09:19;;;;;;;22.88;17.40;;;14.30;99.90;;;;;;5020151;28;20124;-70
2022/10/28 12:12:16;;;;;;;28.75;18.42;;;14.50;99.90;;;;;;5015314;28;20306;-73
2022/10/28 12:14:47;;;;;;;25.42;17.25;;;14.50;99.90;;;;;;5022289;28;20049;-73
2022/10/28 12:17:21;;;;;;;23.58;18.08;;;14.40;99.90;;;;;;5022979;28;20033;-73
2022/10/28 12:19:58;;;;;;;27.13;16.85;;;14.30;99.90;;;;;;5029123;28;20037;-72
2022/10/28 12:22:43;;;;;;;23.73;16.45;;;14.20;99.90;;;;;;5025016;28;20032;-73
2022/10/28 12:25:16;;;;;;;28.67;18.83;;;14.10;99.90;;;;;;5032284;28;20583;-73
2022/10/28 12:27:46;;;;;;;26.70;19.08;;;14.10;99.90;;;;;;5031247;28;20128;-72
2022/10/28 12:30:20;;;;;;;26.88;17.38;;;14.00;99.90;;;;;;5032681;28;20061;-73
2022/10/28 12:32:50;;;;;;;25.52;16.38;;;14.10;99.90;;;;;;5031439;28;20389;-73
2022/10/28 12:35:27;;;;;;;23.45;15.30;;;14.00;99.90;;;;;;5032074;28;20104;-73
2022/10/28 12:38:21;;;;;;;25.45;16.70;;;13.90;99.90;;;;;;5030785;28;20167;-73
2022/10/28 12:41:12;;;;;;;22.83;15.63;;;14.00;99.90;;;;;;5022703;28;20037;-73
2022/10/28 12:43:49;;;;;;;22.90;15.38;;;14.10;99.90;;;;;;5033444;28;20025;-73
2022/10/28 12:46:24;;;;;;;20.55;15.57;;;14.10;99.90;;;;;;5034771;28;20664;-73
2022/10/28 12:49:02;;;;;;;19.85;13.43;;;14.10;99.90;;;;;;5031328;28;20028;-73
2022/10/28 12:51:39;;;;;;;20.95;14.32;;;14.10;99.90;;;;;;5033267;28;20060;-78
2022/10/28 12:54:29;;;;;;;20.05;13.75;;;14.10;99.90;;;;;;5029183;28;20104;-79
2022/10/28 12:57:11;;;;;;;18.58;14.00;;;14.20;99.90;;;;;;5031665;28;20029;-78
2022/10/28 12:59:49;;;;;;;17.88;12.40;;;14.20;99.90;;;;;;5027178;28;20030;-78